createdAt,value
2017-05-13T00:01:20.479Z,25.76
2017-05-13T00:03:49.459Z,25.38
2017-05-13T00:06:18.468Z,26.80
2017-05-13T00:08:47.460Z,24.90
2017-05-13T00:11:15.688Z,25.00
2017-05-13T00:13:43.960Z,22.60
2017-05-13T00:16:12.198Z,24.56
2017-05-13T00:18:40.451Z,24.20
2017-05-13T00:21:09.422Z,25.94
2017-05-13T00:23:37.654Z,25.45
2017-05-13T00:26:05.905Z,32.18
2017-05-13T00:28:34.132Z,30.73
2017-05-13T00:31:02.397Z,29.85
2017-05-13T00:33:30.630Z,30.77
2017-05-13T00:35:58.861Z,28.93
2017-05-13T00:38:27.100Z,29.30
2017-05-13T00:40:55.335Z,28.73
2017-05-13T00:43:24.324Z,29.30
2017-05-13T00:45:53.296Z,28.10
2017-05-13T00:48:21.612Z,30.70
2017-05-13T00:50:49.865Z,26.95
2017-05-13T00:53:18.840Z,24.94
2017-05-13T00:55:47.106Z,24.77
2017-05-13T00:58:15.443Z,25.37
2017-05-13T01:00:43.682Z,26.87
2017-05-13T01:03:12.073Z,25.70
2017-05-13T01:05:41.079Z,28.02
2017-05-13T01:08:09.332Z,30.44
2017-05-13T01:10:38.373Z,33.75
2017-05-13T01:13:06.609Z,30.52
2017-05-13T01:15:35.596Z,29.00
2017-05-13T01:18:04.611Z,29.83
2017-05-13T01:20:32.973Z,26.60
2017-05-13T01:23:01.951Z,25.87
2017-05-13T01:25:30.922Z,27.06
2017-05-13T01:27:59.155Z,29.35
2017-05-13T01:30:27.410Z,30.28
2017-05-13T01:32:55.698Z,27.48
2017-05-13T01:35:23.942Z,27.62
2017-05-13T01:37:52.248Z,28.00
2017-05-13T01:40:20.497Z,29.98
2017-05-13T01:42:49.477Z,28.35
2017-05-13T01:45:17.750Z,26.27
2017-05-13T01:47:46.736Z,27.65
2017-05-13T01:50:15.046Z,27.88
2017-05-13T01:52:44.032Z,27.67
2017-05-13T01:55:13.030Z,27.10
2017-05-13T01:57:42.121Z,27.32
2017-05-13T02:00:10.374Z,26.40
2017-05-13T02:02:38.600Z,26.75
2017-05-13T02:05:06.853Z,26.98
2017-05-13T02:07:35.080Z,26.32
2017-05-13T02:10:03.431Z,28.30
2017-05-13T02:12:31.669Z,25.90
2017-05-13T02:15:00.642Z,27.20
2017-05-13T02:17:28.883Z,25.33
2017-05-13T02:19:57.116Z,25.85
2017-05-13T02:22:25.376Z,26.93
2017-05-13T02:24:54.352Z,27.33
2017-05-13T02:27:22.588Z,29.38
2017-05-13T02:29:50.833Z,30.64
2017-05-13T02:32:19.087Z,29.15
2017-05-13T02:34:48.103Z,32.23
2017-05-13T02:37:16.350Z,31.17
2017-05-13T02:39:44.649Z,32.18
2017-05-13T02:42:12.896Z,30.10
2017-05-13T02:44:41.128Z,31.98
2017-05-13T02:47:09.588Z,32.02
2017-05-13T02:49:37.829Z,34.28
2017-05-13T02:52:06.078Z,33.55
2017-05-13T02:54:34.452Z,33.67
2017-05-13T02:57:02.672Z,32.70
2017-05-13T02:59:31.793Z,34.42
2017-05-13T03:02:00.039Z,33.56
2017-05-13T03:04:29.008Z,33.70
2017-05-13T03:06:57.256Z,33.93
2017-05-13T03:09:25.603Z,32.65
2017-05-13T03:11:53.945Z,33.56
2017-05-13T03:14:22.287Z,33.90
2017-05-13T03:16:50.540Z,32.67
2017-05-13T03:19:18.792Z,32.22
2017-05-13T03:21:47.035Z,34.23
2017-05-13T03:24:15.273Z,33.08
2017-05-13T03:26:43.529Z,33.45
2017-05-13T03:29:11.894Z,34.58
2017-05-13T03:31:40.865Z,34.17
2017-05-13T03:34:09.161Z,33.72
2017-05-13T03:36:38.148Z,32.00
2017-05-13T03:39:07.136Z,32.83
2017-05-13T03:41:36.138Z,31.47
2017-05-13T03:44:05.108Z,30.93
2017-05-13T03:46:33.345Z,31.57
2017-05-13T03:49:01.577Z,29.53
2017-05-13T03:51:30.556Z,30.15
2017-05-13T03:53:59.556Z,31.72
2017-05-13T03:56:28.556Z,34.53
2017-05-13T03:58:57.540Z,31.75
2017-05-13T04:01:26.557Z,28.63
2017-05-13T04:03:54.798Z,29.77
2017-05-13T04:06:23.780Z,31.47
2017-05-13T04:08:52.032Z,30.95
2017-05-13T04:11:20.359Z,30.30
2017-05-13T04:13:48.593Z,29.60
2017-05-13T04:16:16.883Z,30.40
2017-05-13T04:18:45.120Z,31.72
2017-05-13T04:21:13.464Z,31.55
2017-05-13T04:23:41.744Z,29.90
2017-05-13T04:26:10.016Z,27.12
2017-05-13T04:28:38.263Z,28.17
2017-05-13T04:31:06.570Z,27.24
2017-05-13T04:33:34.804Z,25.80
2017-05-13T04:36:03.049Z,27.54
2017-05-13T04:38:31.389Z,28.15
2017-05-13T04:41:00.431Z,28.85
2017-05-13T04:43:28.728Z,28.02
2017-05-13T04:45:57.024Z,26.98
2017-05-13T04:48:25.997Z,26.58
2017-05-13T04:50:54.238Z,29.55
2017-05-13T04:53:22.502Z,25.87
2017-05-13T04:55:50.769Z,25.05
2017-05-13T04:58:19.022Z,25.75
2017-05-13T05:00:48.025Z,26.78
2017-05-13T05:03:16.382Z,25.38
2017-05-13T05:05:45.399Z,26.52
2017-05-13T05:08:13.688Z,26.74
2017-05-13T05:10:41.950Z,26.07
2017-05-13T05:13:10.184Z,27.00
2017-05-13T05:15:38.446Z,27.55
2017-05-13T05:18:06.676Z,26.75
2017-05-13T05:20:34.925Z,26.82
2017-05-13T05:23:03.926Z,27.37
2017-05-13T05:25:32.914Z,27.38
2017-05-13T05:28:01.924Z,27.65
2017-05-13T05:30:30.289Z,26.80
2017-05-13T05:32:59.304Z,27.38
2017-05-13T05:35:27.537Z,26.83
2017-05-13T05:37:55.798Z,28.48
2017-05-13T05:40:24.032Z,27.63
2017-05-13T05:42:52.300Z,27.53
2017-05-13T05:45:20.660Z,27.38
2017-05-13T05:47:48.920Z,25.28
2017-05-13T05:50:17.908Z,26.33
2017-05-13T05:52:46.920Z,27.07
2017-05-13T05:55:15.172Z,26.00
2017-05-13T05:57:44.180Z,25.75
2017-05-13T06:00:13.179Z,26.90
2017-05-13T06:02:42.180Z,27.23
2017-05-13T06:05:10.417Z,25.03
2017-05-13T06:07:38.675Z,24.90
2017-05-13T06:10:06.912Z,27.63
2017-05-13T06:12:35.680Z,25.40
2017-05-13T06:15:04.666Z,24.58
2017-05-13T06:17:33.640Z,24.42
2017-05-13T06:20:01.887Z,26.10
2017-05-13T06:22:30.175Z,27.45
2017-05-13T06:24:58.438Z,24.40
2017-05-13T06:27:26.678Z,24.33
2017-05-13T06:29:54.969Z,25.47
2017-05-13T06:32:23.222Z,24.02
2017-05-13T06:34:51.453Z,23.78
2017-05-13T06:37:19.708Z,23.67
2017-05-13T06:39:47.958Z,22.98
2017-05-13T06:42:16.192Z,22.03
2017-05-13T06:44:44.433Z,20.47
2017-05-13T06:47:12.687Z,21.12
2017-05-13T06:49:40.954Z,20.87
2017-05-13T06:52:09.204Z,19.18
2017-05-13T06:54:38.175Z,21.32
2017-05-13T06:57:06.417Z,20.40
2017-05-13T06:59:34.656Z,20.24
2017-05-13T07:02:03.658Z,19.95
2017-05-13T07:04:32.996Z,20.40
2017-05-13T07:07:01.229Z,20.90
2017-05-13T07:09:29.480Z,20.75
2017-05-13T07:11:58.465Z,20.77
2017-05-13T07:14:26.743Z,20.44
2017-05-13T07:16:55.032Z,21.60
2017-05-13T07:19:23.266Z,21.72
2017-05-13T07:21:51.524Z,20.28
2017-05-13T07:24:19.755Z,21.83
2017-05-13T07:26:48.752Z,21.70
2017-05-13T07:29:17.730Z,24.53
2017-05-13T07:31:46.069Z,22.73
2017-05-13T07:34:14.317Z,23.30
2017-05-13T07:36:42.566Z,22.57
2017-05-13T07:39:11.581Z,23.13
2017-05-13T07:41:39.886Z,25.57
2017-05-13T07:44:08.136Z,22.97
2017-05-13T07:46:36.372Z,22.75
2017-05-13T07:49:04.610Z,22.28
2017-05-13T07:51:32.915Z,23.20
2017-05-13T07:54:01.923Z,25.17
2017-05-13T07:56:30.898Z,23.36
2017-05-13T07:58:59.200Z,23.20
2017-05-13T08:01:27.476Z,24.65
2017-05-13T08:03:56.476Z,24.94
2017-05-13T08:06:24.704Z,24.60
2017-05-13T08:08:52.949Z,24.73
2017-05-13T08:11:21.198Z,25.00
2017-05-13T08:13:49.428Z,23.58
2017-05-13T08:16:17.709Z,25.63
2017-05-13T08:18:45.945Z,25.58
2017-05-13T08:21:14.174Z,25.70
2017-05-13T08:23:42.453Z,24.88
2017-05-13T08:26:11.442Z,24.43
2017-05-13T08:28:39.716Z,25.28
2017-05-13T08:31:08.700Z,25.80
2017-05-13T08:33:37.022Z,26.88
2017-05-13T08:36:05.320Z,27.40
2017-05-13T08:38:33.572Z,27.47
2017-05-13T08:41:02.371Z,26.27
2017-05-13T08:43:30.665Z,27.23
2017-05-13T08:45:58.964Z,26.45
2017-05-13T08:48:27.234Z,26.08
2017-05-13T08:50:55.519Z,27.90
2017-05-13T08:53:24.528Z,27.72
2017-05-13T08:55:53.508Z,27.65
2017-05-13T08:58:21.752Z,28.57
2017-05-13T09:00:49.989Z,27.38
2017-05-13T09:03:18.225Z,25.22
2017-05-13T09:05:46.494Z,25.98
2017-05-13T09:08:14.728Z,26.68
2017-05-13T09:10:42.989Z,26.15
2017-05-13T09:13:11.230Z,26.90
2017-05-13T09:15:41.047Z,25.15
2017-05-13T09:18:10.040Z,25.24
2017-05-13T09:20:38.273Z,25.82
2017-05-13T09:23:06.552Z,24.32
2017-05-13T09:25:34.785Z,24.50
2017-05-13T09:28:03.032Z,24.10
2017-05-13T09:30:31.302Z,24.53
2017-05-13T09:32:59.554Z,24.43
2017-05-13T09:35:27.821Z,23.63
2017-05-13T09:37:56.064Z,26.03
2017-05-13T09:40:24.311Z,24.46
2017-05-13T09:42:52.564Z,23.47
2017-05-13T09:45:20.820Z,22.37
2017-05-13T09:47:49.090Z,22.32
2017-05-13T09:50:17.327Z,22.77
2017-05-13T09:52:44.798Z,22.55
2017-05-13T09:55:13.036Z,21.45
2017-05-13T09:57:41.321Z,21.80
2017-05-13T10:00:10.320Z,21.53
2017-05-13T10:02:39.310Z,21.58
2017-05-13T10:05:07.559Z,23.67
2017-05-13T10:07:35.793Z,20.95
2017-05-13T10:10:04.068Z,21.08
2017-05-13T10:12:32.337Z,21.63
2017-05-13T10:15:00.564Z,21.40
2017-05-13T10:17:28.807Z,22.57
2017-05-13T10:19:57.045Z,22.70
2017-05-13T10:22:25.308Z,21.03
2017-05-13T10:24:54.304Z,21.98
2017-05-13T10:27:23.314Z,21.18
2017-05-13T10:29:51.635Z,19.42
2017-05-13T10:32:19.876Z,20.52
2017-05-13T10:34:50.071Z,20.52
2017-05-13T10:37:18.317Z,20.30
2017-05-13T10:39:46.584Z,19.98
2017-05-13T10:42:14.877Z,20.57
2017-05-13T10:44:43.119Z,20.52
2017-05-13T10:47:11.367Z,20.50
2017-05-13T10:49:39.594Z,19.98
2017-05-13T10:52:07.942Z,21.00
2017-05-13T10:54:36.180Z,20.60
2017-05-13T10:57:04.416Z,18.88
2017-05-13T10:59:32.667Z,18.18
2017-05-13T11:02:00.896Z,18.98
2017-05-13T11:04:29.160Z,18.65
2017-05-13T11:06:58.155Z,18.27
2017-05-13T11:09:27.154Z,17.40
2017-05-13T11:11:56.152Z,17.67
2017-05-13T11:14:24.396Z,19.37
2017-05-13T11:16:52.654Z,19.60
2017-05-13T11:19:20.896Z,16.87
2017-05-13T11:21:49.140Z,17.52
2017-05-13T11:24:18.187Z,17.58
2017-05-13T11:26:46.430Z,17.80
2017-05-13T11:29:14.668Z,16.75
2017-05-13T11:31:42.909Z,15.12
2017-05-13T11:34:11.144Z,16.10
2017-05-13T11:36:39.407Z,15.98
2017-05-13T11:39:08.385Z,16.18
2017-05-13T11:41:36.616Z,17.05
2017-05-13T11:44:05.068Z,17.97
2017-05-13T11:46:33.321Z,20.45
2017-05-13T11:49:02.309Z,21.85
2017-05-13T11:51:31.297Z,19.75
2017-05-13T11:53:59.529Z,19.85
2017-05-13T11:56:27.774Z,20.85
2017-05-13T11:58:56.026Z,19.92
2017-05-13T12:01:25.081Z,21.47
2017-05-13T12:03:53.310Z,21.45
2017-05-13T12:06:22.288Z,20.52
2017-05-13T12:08:51.268Z,20.37
2017-05-13T12:11:20.335Z,21.05
2017-05-13T12:13:48.713Z,20.13
2017-05-13T12:16:16.944Z,22.35
2017-05-13T12:18:45.180Z,15.88
2017-05-13T12:21:13.433Z,10.65
2017-05-13T12:23:41.828Z,7.38
2017-05-13T12:26:10.092Z,6.47
2017-05-13T12:28:38.464Z,7.83
2017-05-13T12:31:06.707Z,7.25
2017-05-13T12:33:34.940Z,7.22
2017-05-13T12:36:03.170Z,7.18
2017-05-13T12:38:31.428Z,7.02
2017-05-13T12:40:59.655Z,6.68
2017-05-13T12:43:27.882Z,3.63
2017-05-13T12:45:56.120Z,3.60
2017-05-13T12:48:25.117Z,3.33
2017-05-13T12:50:54.112Z,3.68
2017-05-13T12:53:23.091Z,3.82
2017-05-13T12:55:51.340Z,4.48
2017-05-13T12:58:19.575Z,4.35
2017-05-13T13:00:47.822Z,4.83
2017-05-13T13:03:16.098Z,5.40
2017-05-13T13:05:45.071Z,6.47
2017-05-13T13:08:13.326Z,6.73
2017-05-13T13:10:41.619Z,7.64
2017-05-13T13:13:09.873Z,8.00
2017-05-13T13:15:43.675Z,8.98
2017-05-13T13:18:11.913Z,11.98
2017-05-13T13:20:40.891Z,8.62
2017-05-13T13:23:09.869Z,9.80
2017-05-13T13:25:39.152Z,12.68
2017-05-13T13:28:07.418Z,10.12
2017-05-13T13:30:35.668Z,12.23
2017-05-13T13:33:03.950Z,14.63
2017-05-13T13:35:32.213Z,17.48
2017-05-13T13:38:00.436Z,23.10
2017-05-13T13:40:28.685Z,23.70
2017-05-13T13:42:57.025Z,19.80
2017-05-13T13:45:25.262Z,17.15
2017-05-13T13:47:53.510Z,19.13
2017-05-13T13:50:21.752Z,17.45
2017-05-13T13:52:50.140Z,17.84
2017-05-13T13:55:18.397Z,19.60
2017-05-13T13:57:47.389Z,19.22
2017-05-13T14:00:16.468Z,17.47
2017-05-13T14:02:44.705Z,16.32
2017-05-13T14:05:12.935Z,17.83
2017-05-13T14:07:41.932Z,17.08
2017-05-13T14:10:10.174Z,18.27
2017-05-13T14:12:38.453Z,14.53
2017-05-13T14:15:06.690Z,14.20
2017-05-13T14:17:34.931Z,13.62
2017-05-13T14:20:03.228Z,14.45
2017-05-13T14:22:31.498Z,15.70
2017-05-13T14:24:59.770Z,13.88
2017-05-13T14:27:28.072Z,16.12
2017-05-13T14:29:56.336Z,13.25
2017-05-13T14:32:24.621Z,12.10
2017-05-13T14:34:52.936Z,11.22
2017-05-13T14:37:21.182Z,11.75
2017-05-13T14:39:49.498Z,13.48
2017-05-13T14:42:18.475Z,14.77
2017-05-13T14:44:46.772Z,12.43
2017-05-13T14:47:15.767Z,15.40
2017-05-13T14:49:44.747Z,15.40
2017-05-13T14:52:13.000Z,17.15
2017-05-13T14:54:41.258Z,18.92
2017-05-13T14:57:09.524Z,13.98
2017-05-13T14:59:37.765Z,12.47
2017-05-13T15:02:06.016Z,11.15
2017-05-13T15:04:34.995Z,11.58
2017-05-13T15:07:03.271Z,11.43
2017-05-13T15:09:31.530Z,11.03
2017-05-13T15:11:59.768Z,11.70
2017-05-13T15:14:27.999Z,12.47
2017-05-13T15:16:56.276Z,13.93
2017-05-13T15:19:24.523Z,10.03
2017-05-13T15:21:52.761Z,11.25
2017-05-13T15:24:21.028Z,10.58
2017-05-13T15:26:49.257Z,8.30
2017-05-13T15:29:17.484Z,9.14
2017-05-13T15:31:45.742Z,9.07
2017-05-13T15:34:14.724Z,9.58
2017-05-13T15:36:43.706Z,10.98
2017-05-13T15:39:11.964Z,9.65
2017-05-13T15:41:40.252Z,9.56
2017-05-13T15:44:08.498Z,8.47
2017-05-13T15:46:36.977Z,9.17
2017-05-13T15:49:05.224Z,9.92
2017-05-13T15:51:33.530Z,9.38
2017-05-13T15:54:01.797Z,8.88
2017-05-13T15:56:30.028Z,9.50
2017-05-13T15:58:59.008Z,9.58
2017-05-13T16:01:27.276Z,9.27
2017-05-13T16:03:55.516Z,10.92
2017-05-13T16:06:23.743Z,10.10
2017-05-13T16:08:52.790Z,9.82
2017-05-13T16:11:21.021Z,9.92
2017-05-13T16:13:49.265Z,8.60
2017-05-13T16:16:17.600Z,8.00
2017-05-13T16:18:45.840Z,8.12
2017-05-13T16:21:14.835Z,9.87
2017-05-13T16:23:43.108Z,9.33
2017-05-13T16:26:12.092Z,12.68
2017-05-13T16:28:40.719Z,9.76
2017-05-13T16:31:08.986Z,9.08
2017-05-13T16:33:37.257Z,11.68
2017-05-13T16:36:05.504Z,10.28
2017-05-13T16:38:34.533Z,8.67
2017-05-13T16:41:02.786Z,8.38
2017-05-13T16:43:31.078Z,7.72
2017-05-13T16:45:59.368Z,7.70
2017-05-13T16:48:27.650Z,7.47
2017-05-13T16:50:55.891Z,7.25
2017-05-13T16:53:24.202Z,9.00
2017-05-13T16:55:52.457Z,8.95
2017-05-13T16:58:20.736Z,7.93
2017-05-13T17:00:49.041Z,7.42
2017-05-13T17:03:17.273Z,8.52
2017-05-13T17:05:45.502Z,7.60
2017-05-13T17:08:13.854Z,8.10
2017-05-13T17:10:42.154Z,13.75
2017-05-13T17:13:10.391Z,30.23
2017-05-13T17:15:38.656Z,19.34
2017-05-13T17:18:06.912Z,15.73
2017-05-13T17:20:35.161Z,16.20
2017-05-13T17:23:03.448Z,15.70
2017-05-13T17:25:32.444Z,13.08
2017-05-13T17:28:01.428Z,19.77
2017-05-13T17:30:29.685Z,23.25
2017-05-13T17:32:57.929Z,18.15
2017-05-13T17:35:26.191Z,17.55
2017-05-13T17:37:54.451Z,15.48
2017-05-13T17:40:22.705Z,14.72
2017-05-13T17:42:51.675Z,11.10
2017-05-13T17:45:19.925Z,16.66
2017-05-13T17:47:48.314Z,12.77
2017-05-13T17:50:16.585Z,8.42
2017-05-13T17:52:45.744Z,9.37
2017-05-13T17:55:14.074Z,8.70
2017-05-13T17:57:42.377Z,6.70
2017-05-13T18:00:11.400Z,6.77
2017-05-13T18:02:39.685Z,5.33
2017-05-13T18:05:07.919Z,4.10
2017-05-13T18:07:36.558Z,3.42
2017-05-13T18:10:04.802Z,2.20
2017-05-13T18:12:33.039Z,2.36
2017-05-13T18:15:01.302Z,1.90
2017-05-13T18:17:29.577Z,1.90
2017-05-13T18:19:57.820Z,1.93
2017-05-13T18:22:26.086Z,1.90
2017-05-13T18:24:54.346Z,1.70
2017-05-13T18:27:22.576Z,1.80
2017-05-13T18:29:50.912Z,1.60
2017-05-13T18:32:19.149Z,1.60
2017-05-13T18:34:48.126Z,1.88
2017-05-13T18:37:16.427Z,2.20
2017-05-13T18:39:45.396Z,2.50
2017-05-13T18:42:13.643Z,2.00
2017-05-13T18:44:41.905Z,2.65
2017-05-13T18:47:10.144Z,2.38
2017-05-13T18:49:39.116Z,2.47
2017-05-13T18:52:07.364Z,2.68
2017-05-13T18:54:35.808Z,3.17
2017-05-13T18:57:04.073Z,3.20
2017-05-13T18:59:33.163Z,3.08
2017-05-13T19:02:01.537Z,2.83
2017-05-13T19:04:29.835Z,3.02
2017-05-13T19:06:58.128Z,3.07
2017-05-13T19:09:26.370Z,3.72
2017-05-13T19:11:55.433Z,3.53
2017-05-13T19:14:23.856Z,4.70
2017-05-13T19:16:52.079Z,4.18
2017-05-13T19:19:20.417Z,5.03
2017-05-13T19:21:48.682Z,5.02
2017-05-13T19:24:16.979Z,4.80
2017-05-13T19:26:45.250Z,4.88
2017-05-13T19:29:13.531Z,4.56
2017-05-13T19:31:41.799Z,4.50
2017-05-13T19:34:10.186Z,4.30
2017-05-13T19:36:38.459Z,5.43
2017-05-13T19:39:06.702Z,4.53
2017-05-13T19:41:35.078Z,4.42
2017-05-13T19:44:03.340Z,6.10
2017-05-13T19:46:32.364Z,5.03
2017-05-13T19:49:00.625Z,5.32
2017-05-13T19:51:28.916Z,5.38
2017-05-13T19:53:57.143Z,5.30
2017-05-13T19:56:25.476Z,7.22
2017-05-13T19:58:53.774Z,7.33
2017-05-13T20:01:22.053Z,8.45
2017-05-13T20:03:50.297Z,9.60
2017-05-13T20:06:18.583Z,11.65
2017-05-13T20:08:46.836Z,21.05
2017-05-13T20:11:15.120Z,19.48
2017-05-13T20:13:43.397Z,18.43
2017-05-13T20:16:11.682Z,18.63
2017-05-13T20:18:39.949Z,18.28
2017-05-13T20:21:08.202Z,20.33
2017-05-13T20:23:36.443Z,18.45
2017-05-13T20:26:04.877Z,16.73
2017-05-13T20:28:33.208Z,18.43
2017-05-13T20:31:01.490Z,16.55
2017-05-13T20:33:30.507Z,17.55
2017-05-13T20:35:58.922Z,18.10
2017-05-13T20:38:27.155Z,15.93
2017-05-13T20:40:55.412Z,15.75
2017-05-13T20:43:24.444Z,19.38
2017-05-13T20:45:52.737Z,17.00
2017-05-13T20:48:20.982Z,16.00
2017-05-13T20:50:49.369Z,15.27
2017-05-13T20:53:17.731Z,16.63
2017-05-13T20:55:46.028Z,15.52
2017-05-13T20:58:14.283Z,14.82
2017-05-13T21:00:42.523Z,15.05
2017-05-13T21:03:10.855Z,14.87
2017-05-13T21:05:39.203Z,14.97
2017-05-13T21:08:07.451Z,15.35
2017-05-13T21:10:35.692Z,15.54
2017-05-13T21:13:04.065Z,17.15
2017-05-13T21:15:32.302Z,20.68
2017-05-13T21:18:01.293Z,12.55
2017-05-13T21:20:30.313Z,11.03
2017-05-13T21:22:58.551Z,10.48
2017-05-13T21:25:27.557Z,11.37
2017-05-13T21:27:55.784Z,10.07
2017-05-13T21:30:24.064Z,10.95
2017-05-13T21:32:52.486Z,10.87
2017-05-13T21:35:20.770Z,9.72
2017-05-13T21:38:09.884Z,10.72
2017-05-13T21:40:38.123Z,8.47
2017-05-13T21:43:06.353Z,7.74
2017-05-13T21:45:35.410Z,7.78
2017-05-13T21:48:03.737Z,7.37
2017-05-13T21:50:32.743Z,7.63
2017-05-13T21:53:00.993Z,8.72
2017-05-13T21:55:29.963Z,11.18
2017-05-13T21:57:58.220Z,11.88
2017-05-13T22:00:26.556Z,11.48
2017-05-13T22:02:54.800Z,11.75
2017-05-13T22:05:23.028Z,13.30
2017-05-13T22:07:51.293Z,11.72
2017-05-13T22:10:19.551Z,13.72
2017-05-13T22:12:48.544Z,13.60
2017-05-13T22:15:17.524Z,14.32
2017-05-13T22:17:46.490Z,13.70
2017-05-13T22:20:14.747Z,15.50
2017-05-13T22:22:43.083Z,12.17
2017-05-13T22:25:12.079Z,13.02
2017-05-13T22:27:40.341Z,13.72
2017-05-13T22:30:09.316Z,13.85
2017-05-13T22:32:37.557Z,13.72
2017-05-13T22:35:05.788Z,14.18
2017-05-13T22:37:34.055Z,15.50
2017-05-13T22:40:03.040Z,15.04
2017-05-13T22:42:32.023Z,13.85
2017-05-13T22:45:00.280Z,15.70
2017-05-13T22:47:29.415Z,12.82
2017-05-13T22:49:58.425Z,12.92
2017-05-13T22:52:26.655Z,11.75
2017-05-13T22:54:54.876Z,13.32
2017-05-13T22:57:23.123Z,12.35
2017-05-13T22:59:52.133Z,11.82
2017-05-13T23:02:20.495Z,10.97
2017-05-13T23:04:49.481Z,12.43
2017-05-13T23:07:18.460Z,9.35
2017-05-13T23:09:46.765Z,11.93
2017-05-13T23:12:15.042Z,14.03
2017-05-13T23:14:43.302Z,19.17
2017-05-13T23:17:12.284Z,16.03
2017-05-13T23:19:40.568Z,16.63
2017-05-13T23:22:09.676Z,16.65
2017-05-13T23:24:38.660Z,16.93
2017-05-13T23:27:07.655Z,14.92
2017-05-13T23:29:36.642Z,14.97
2017-05-13T23:32:05.658Z,13.97
2017-05-13T23:34:33.905Z,13.57
2017-05-13T23:37:02.877Z,13.45
2017-05-13T23:39:31.192Z,14.02
2017-05-13T23:41:59.420Z,12.67
2017-05-13T23:44:27.937Z,13.80
2017-05-13T23:46:57.452Z,13.43
2017-05-13T23:49:25.720Z,13.70
2017-05-13T23:51:54.813Z,14.20
2017-05-13T23:54:23.093Z,15.27
2017-05-13T23:56:51.369Z,16.62
2017-05-13T23:59:20.365Z,15.77
